<?xml version='1.0' encoding='UTF-8'?><gpx version="1.1" creator="JPX - https://github.com/jenetics/jpx" xmlns="http://www.topografix.com/GPX/1/1"><trk><trkseg><trkpt lat="46.6042812" lon="12.4775946"><ele>1207.0</ele><time>2026-04-19T15:18:46.538Z</time></trkpt><trkpt lat="46.6042023" lon="12.4775088"><ele>1207.0</ele><time>2026-04-19T15:18:50.539Z</time></trkpt><trkpt lat="46.6041679" lon="12.4774228"><ele>1207.0</ele><time>2026-04-19T15:18:52.537Z</time></trkpt><trkpt lat="46.6041011" lon="12.4773286"><ele>1207.0</ele><time>2026-04-19T15:18:55.538Z</time></trkpt><trkpt lat="46.6040411" lon="12.4772386"><ele>1207.0</ele><time>2026-04-19T15:18:58.538Z</time></trkpt><trkpt lat="46.6039734" lon="12.4771651"><ele>1207.0</ele><time>2026-04-19T15:19:01.533Z</time></trkpt><trkpt lat="46.6039144" lon="12.4770636"><ele>1208.0</ele><time>2026-04-19T15:19:04.537Z</time></trkpt><trkpt lat="46.6038706" lon="12.4769601"><ele>1209.0</ele><time>2026-04-19T15:19:07.533Z</time></trkpt><trkpt lat="46.6038266" lon="12.476878"><ele>1210.0</ele><time>2026-04-19T15:19:10.508Z</time></trkpt><trkpt lat="46.6037733" lon="12.4767907"><ele>1211.0</ele><time>2026-04-19T15:19:13.538Z</time></trkpt><trkpt lat="46.6037143" lon="12.4767104"><ele>1212.0</ele><time>2026-04-19T15:19:16.635Z</time></trkpt><trkpt lat="46.6036587" lon="12.4766338"><ele>1213.0</ele><time>2026-04-19T15:19:19.538Z</time></trkpt><trkpt lat="46.6036034" lon="12.4765522"><ele>1213.2857142857144</ele><time>2026-04-19T15:19:22.538Z</time></trkpt><trkpt lat="46.6035525" lon="12.4764727"><ele>1213.5714285714284</ele><time>2026-04-19T15:19:25.585Z</time></trkpt><trkpt lat="46.6035013" lon="12.4764015"><ele>1213.857142857143</ele><time>2026-04-19T15:19:28.53Z</time></trkpt><trkpt lat="46.6034476" lon="12.4763305"><ele>1214.1428571428573</ele><time>2026-04-19T15:19:31.537Z</time></trkpt><trkpt lat="46.6033976" lon="12.4762488"><ele>1214.4285714285716</ele><time>2026-04-19T15:19:34.54Z</time></trkpt><trkpt lat="46.6033476" lon="12.4761745"><ele>1214.7142857142858</ele><time>2026-04-19T15:19:37.536Z</time></trkpt><trkpt lat="46.6032982" lon="12.4761098"><ele>1215.0</ele><time>2026-04-19T15:19:40.533Z</time></trkpt><trkpt lat="46.6032423" lon="12.4760245"><ele>1216.5714285714287</ele><time>2026-04-19T15:19:44.534Z</time></trkpt><trkpt lat="46.6031863" lon="12.4759395"><ele>1218.142857142857</ele><time>2026-04-19T15:19:48.531Z</time></trkpt><trkpt lat="46.6031324" lon="12.475874"><ele>1219.7142857142858</ele><time>2026-04-19T15:19:51.539Z</time></trkpt><trkpt lat="46.6030844" lon="12.4758111"><ele>1221.2857142857142</ele><time>2026-04-19T15:19:54.536Z</time></trkpt><trkpt lat="46.6030265" lon="12.4757311"><ele>1222.857142857143</ele><time>2026-04-19T15:19:58.531Z</time></trkpt><trkpt lat="46.602974" lon="12.4756801"><ele>1224.4285714285716</ele><time>2026-04-19T15:20:01.538Z</time></trkpt><trkpt lat="46.6029217" lon="12.4756243"><ele>1226.0</ele><time>2026-04-19T15:20:04.53Z</time></trkpt><trkpt lat="46.6028793" lon="12.4755548"><ele>1227.857142857143</ele><time>2026-04-19T15:20:07.532Z</time></trkpt><trkpt lat="46.6028241" lon="12.4754736"><ele>1229.7142857142858</ele><time>2026-04-19T15:20:11.546Z</time></trkpt><trkpt lat="46.6027695" lon="12.4754205"><ele>1231.5714285714284</ele><time>2026-04-19T15:20:15.557Z</time></trkpt><trkpt lat="46.602713" lon="12.4753563"><ele>1233.4285714285716</ele><time>2026-04-19T15:20:20.529Z</time></trkpt><trkpt lat="46.6026532" lon="12.475285"><ele>1235.2857142857142</ele><time>2026-04-19T15:20:25.533Z</time></trkpt><trkpt lat="46.6026022" lon="12.475215"><ele>1237.142857142857</ele><time>2026-04-19T15:20:32.563Z</time></trkpt><trkpt lat="46.6025387" lon="12.475204"><ele>1239.0</ele><time>2026-04-19T15:20:41.53Z</time></trkpt><trkpt lat="46.6024783" lon="12.4751376"><ele>1241.4285714285713</ele><time>2026-04-19T15:20:46.518Z</time></trkpt><trkpt lat="46.6024363" lon="12.4750626"><ele>1243.857142857143</ele><time>2026-04-19T15:20:49.537Z</time></trkpt><trkpt lat="46.6023854" lon="12.4749947"><ele>1246.2857142857142</ele><time>2026-04-19T15:20:53.536Z</time></trkpt><trkpt lat="46.6023459" lon="12.4749078"><ele>1248.7142857142858</ele><time>2026-04-19T15:20:58.567Z</time></trkpt><trkpt lat="46.6023179" lon="12.4748159"><ele>1251.142857142857</ele><time>2026-04-19T15:21:04.533Z</time></trkpt><trkpt lat="46.602309" lon="12.474718"><ele>1253.5714285714284</ele><time>2026-04-19T15:21:09.539Z</time></trkpt><trkpt lat="46.602278" lon="12.4746185"><ele>1256.0</ele><time>2026-04-19T15:21:15.554Z</time></trkpt><trkpt lat="46.6022445" lon="12.4745199"><ele>1257.7142857142856</ele><time>2026-04-19T15:21:21.567Z</time></trkpt><trkpt lat="46.6022116" lon="12.4744184"><ele>1259.4285714285713</ele><time>2026-04-19T15:21:26.537Z</time></trkpt><trkpt lat="46.6021787" lon="12.4743399"><ele>1261.142857142857</ele><time>2026-04-19T15:21:30.559Z</time></trkpt><trkpt lat="46.6021407" lon="12.474249"><ele>1262.8571428571427</ele><time>2026-04-19T15:21:35.569Z</time></trkpt><trkpt lat="46.6021128" lon="12.4741372"><ele>1264.5714285714284</ele><time>2026-04-19T15:21:41.536Z</time></trkpt><trkpt lat="46.602105" lon="12.474044"><ele>1266.2857142857142</ele><time>2026-04-19T15:21:44.557Z</time></trkpt><trkpt lat="46.6020869" lon="12.4739507"><ele>1268.0</ele><time>2026-04-19T15:21:47.539Z</time></trkpt><trkpt lat="46.6020629" lon="12.4738492"><ele>1272.0</ele><time>2026-04-19T15:21:52.554Z</time></trkpt><trkpt lat="46.6020517" lon="12.4737322"><ele>1276.0</ele><time>2026-04-19T15:21:57.537Z</time></trkpt><trkpt lat="46.602045" lon="12.473623"><ele>1280.0</ele><time>2026-04-19T15:22:01.539Z</time></trkpt><trkpt lat="46.602021" lon="12.4735113"><ele>1284.0</ele><time>2026-04-19T15:22:17.538Z</time></trkpt><trkpt lat="46.6020107" lon="12.4734016"><ele>1288.0</ele><time>2026-04-19T15:22:20.675Z</time></trkpt><trkpt lat="46.6020028" lon="12.4732919"><ele>1292.0</ele><time>2026-04-19T15:22:24.534Z</time></trkpt><trkpt lat="46.6019813" lon="12.4731812"><ele>1295.8333333333335</ele><time>2026-04-19T15:22:41.575Z</time></trkpt><trkpt lat="46.6019767" lon="12.4730652"><ele>1299.6666666666667</ele><time>2026-04-19T15:22:45.552Z</time></trkpt><trkpt lat="46.6019837" lon="12.4729686"><ele>1303.5</ele><time>2026-04-19T15:22:48.538Z</time></trkpt><trkpt lat="46.601974" lon="12.4728613"><ele>1307.3333333333333</ele><time>2026-04-19T15:22:52.537Z</time></trkpt><trkpt lat="46.6019576" lon="12.4727629"><ele>1311.1666666666665</ele><time>2026-04-19T15:22:58.539Z</time></trkpt><trkpt lat="46.6019413" lon="12.4726294"><ele>1315.0</ele><time>2026-04-19T15:23:18.57Z</time></trkpt><trkpt lat="46.6019389" lon="12.4725147"><ele>1316.857142857143</ele><time>2026-04-19T15:23:21.538Z</time></trkpt><trkpt lat="46.6019408" lon="12.4724199"><ele>1318.7142857142858</ele><time>2026-04-19T15:23:26.534Z</time></trkpt><trkpt lat="46.6019055" lon="12.4723313"><ele>1320.5714285714284</ele><time>2026-04-19T15:23:34.472Z</time></trkpt><trkpt lat="46.6018945" lon="12.4722212"><ele>1322.4285714285716</ele><time>2026-04-19T15:23:42.518Z</time></trkpt><trkpt lat="46.6018734" lon="12.4721213"><ele>1324.2857142857144</ele><time>2026-04-19T15:23:51.537Z</time></trkpt><trkpt lat="46.6019008" lon="12.4720359"><ele>1326.142857142857</ele><time>2026-04-19T15:23:58.531Z</time></trkpt><trkpt lat="46.6018794" lon="12.472126"><ele>1328.0</ele><time>2026-04-19T15:24:03.539Z</time></trkpt><trkpt lat="46.6018778" lon="12.4720165"><ele>1331.2857142857142</ele><time>2026-04-19T15:24:06.533Z</time></trkpt><trkpt lat="46.6018531" lon="12.47192"><ele>1334.5714285714287</ele><time>2026-04-19T15:24:11.527Z</time></trkpt><trkpt lat="46.6018783" lon="12.4718196"><ele>1337.857142857143</ele><time>2026-04-19T15:24:17.538Z</time></trkpt><trkpt lat="46.6018574" lon="12.4717266"><ele>1341.142857142857</ele><time>2026-04-19T15:24:24.354Z</time></trkpt><trkpt lat="46.6018233" lon="12.471632"><ele>1344.4285714285716</ele><time>2026-04-19T15:24:32.532Z</time></trkpt><trkpt lat="46.6018816" lon="12.4715601"><ele>1347.7142857142858</ele><time>2026-04-19T15:25:02.538Z</time></trkpt><trkpt lat="46.6019205" lon="12.4714832"><ele>1351.0</ele><time>2026-04-19T15:25:11.571Z</time></trkpt><trkpt lat="46.6019533" lon="12.4714022"><ele>1351.0</ele><time>2026-04-19T15:25:23.537Z</time></trkpt><trkpt lat="46.6018644" lon="12.4714856"><ele>1351.0</ele><time>2026-04-19T15:25:32.538Z</time></trkpt><trkpt lat="46.601911" lon="12.471272"><ele>1351.0</ele><time>2026-04-19T15:25:35.538Z</time></trkpt><trkpt lat="46.6019958" lon="12.4710325"><ele>1351.0</ele><time>2026-04-19T15:25:36.538Z</time></trkpt><trkpt lat="46.6020226" lon="12.4709353"><ele>1354.3333333333333</ele><time>2026-04-19T15:25:39.531Z</time></trkpt><trkpt lat="46.6020621" lon="12.470843"><ele>1357.6666666666665</ele><time>2026-04-19T15:25:43.538Z</time></trkpt><trkpt lat="46.6020849" lon="12.4707421"><ele>1361.0</ele><time>2026-04-19T15:25:48.559Z</time></trkpt><trkpt lat="46.6020971" lon="12.4706462"><ele>1364.3333333333333</ele><time>2026-04-19T15:26:09.538Z</time></trkpt><trkpt lat="46.6020981" lon="12.4705523"><ele>1367.6666666666667</ele><time>2026-04-19T15:26:15.513Z</time></trkpt><trkpt lat="46.602085" lon="12.4704603"><ele>1371.0</ele><time>2026-04-19T15:26:28.539Z</time></trkpt><trkpt lat="46.6021072" lon="12.4702848"><ele>1374.2857142857142</ele><time>2026-04-19T15:26:50.538Z</time></trkpt><trkpt lat="46.6021042" lon="12.4701849"><ele>1377.5714285714287</ele><time>2026-04-19T15:26:54.538Z</time></trkpt><trkpt lat="46.6021136" lon="12.4700924"><ele>1380.857142857143</ele><time>2026-04-19T15:27:03.53Z</time></trkpt><trkpt lat="46.6021235" lon="12.4699553"><ele>1384.142857142857</ele><time>2026-04-19T15:27:24.565Z</time></trkpt><trkpt lat="46.6021152" lon="12.4698519"><ele>1387.4285714285713</ele><time>2026-04-19T15:27:32.533Z</time></trkpt><trkpt lat="46.6021066" lon="12.4697526"><ele>1390.7142857142858</ele><time>2026-04-19T15:27:44.555Z</time></trkpt><trkpt lat="46.6020955" lon="12.4696599"><ele>1394.0</ele><time>2026-04-19T15:27:52.555Z</time></trkpt><trkpt lat="46.6021095" lon="12.4695525"><ele>1399.5</ele><time>2026-04-19T15:28:05.538Z</time></trkpt><trkpt lat="46.6021079" lon="12.4694601"><ele>1405.0</ele><time>2026-04-19T15:28:11.539Z</time></trkpt><trkpt lat="46.6021149" lon="12.4692531"><ele>1410.5</ele><time>2026-04-19T15:28:40.547Z</time></trkpt><trkpt lat="46.602145" lon="12.4691387"><ele>1416.0</ele><time>2026-04-19T15:28:48.525Z</time></trkpt><trkpt lat="46.6021828" lon="12.4690339"><ele>1421.5</ele><time>2026-04-19T15:28:53.536Z</time></trkpt><trkpt lat="46.6022183" lon="12.4689569"><ele>1427.0</ele><time>2026-04-19T15:28:58.53Z</time></trkpt><trkpt lat="46.6022565" lon="12.4688662"><ele>1429.0</ele><time>2026-04-19T15:29:04.54Z</time></trkpt><trkpt lat="46.6022881" lon="12.4687721"><ele>1431.0</ele><time>2026-04-19T15:29:09.54Z</time></trkpt><trkpt lat="46.6023226" lon="12.4686833"><ele>1433.0</ele><time>2026-04-19T15:29:12.558Z</time></trkpt><trkpt lat="46.6023876" lon="12.4686119"><ele>1435.0</ele><time>2026-04-19T15:29:17.538Z</time></trkpt><trkpt lat="46.6024277" lon="12.4685394"><ele>1437.0</ele><time>2026-04-19T15:29:20.54Z</time></trkpt><trkpt lat="46.6024585" lon="12.4684333"><ele>1439.0</ele><time>2026-04-19T15:29:23.539Z</time></trkpt><trkpt lat="46.6024965" lon="12.4683266"><ele>1441.0</ele><time>2026-04-19T15:29:26.539Z</time></trkpt><trkpt lat="46.6025519" lon="12.4682131"><ele>1441.0</ele><time>2026-04-19T15:29:29.538Z</time></trkpt><trkpt lat="46.6025914" lon="12.46814"><ele>1441.0</ele><time>2026-04-19T15:29:31.47Z</time></trkpt><trkpt lat="46.6026444" lon="12.4680405"><ele>1441.0</ele><time>2026-04-19T15:29:34.516Z</time></trkpt></trkseg></trk></gpx>